Time;durP1;ratioP1;P1;durP2;ratioP2;P2;SDS_P1;SDS_P2;PMS_P1;PMS_P2;Temp;Humidity;BMP_temperature;BMP_pressure;BME280_temperature;BME280_humidity;BME280_pressure;Samples;Min_cycle;Max_cycle;Signal;HPM_P1;HPM_P2
2023/04/05 00:00:35;;;;;;;;;25.25;18.00;;;;;9.42;42.62;102002.94;4997435;28;45326;-53
2023/04/05 00:03:00;;;;;;;;;32.75;23.00;;;;;9.48;43.28;102014.00;4997514;28;45347;-47
2023/04/05 00:05:33;;;;;;;;;29.25;23.50;;;;;9.50;43.20;102020.03;4997457;28;45588;-45
2023/04/05 00:08:03;;;;;;;;;15.75;13.50;;;;;9.51;43.28;102020.88;4997250;28;46116;-49
2023/04/05 00:10:30;;;;;;;;;28.25;21.75;;;;;9.53;42.95;102007.53;4997271;28;45307;-50
2023/04/05 00:12:59;;;;;;;;;24.50;15.75;;;;;9.49;42.62;102001.56;4997578;28;45250;-46
2023/04/05 00:15:26;;;;;;;;;29.75;19.75;;;;;9.56;43.17;102021.41;4997276;28;45480;-49
2023/04/05 00:17:52;;;;;;;;;21.75;20.25;;;;;9.55;43.34;102011.75;4996901;28;46432;-47
2023/04/05 00:20:18;;;;;;;;;17.25;15.00;;;;;9.55;42.57;102011.75;4997199;28;45461;-46
2023/04/05 00:22:45;;;;;;;;;29.25;19.75;;;;;9.55;42.68;102014.41;4996220;28;45323;-47
2023/04/05 00:25:11;;;;;;;;;32.00;21.75;;;;;9.53;43.23;102016.34;4997450;28;45361;-48
2023/04/05 00:27:37;;;;;;;;;29.75;22.00;;;;;9.54;43.30;102015.38;4996806;28;45383;-46
2023/04/05 00:30:03;;;;;;;;;27.50;22.25;;;;;9.55;43.74;102010.91;4996925;28;45466;-45
2023/04/05 00:32:29;;;;;;;;;25.25;21.00;;;;;9.54;43.91;102006.56;4996984;28;45348;-46
2023/04/05 00:34:54;;;;;;;;;20.00;15.75;;;;;9.54;43.46;102012.72;4979580;28;45476;-46
2023/04/05 00:37:20;;;;;;;;;21.50;15.25;;;;;9.53;44.25;102012.84;4996837;28;45897;-46
2023/04/05 00:39:46;;;;;;;;;28.75;22.25;;;;;9.49;44.25;102009.53;4996891;28;45195;-46
2023/04/05 00:42:11;;;;;;;;;24.00;20.75;;;;;9.51;44.33;102010.25;4996766;28;45229;-46
2023/04/05 00:44:37;;;;;;;;;27.75;20.75;;;;;9.48;43.92;102005.16;5000468;28;45259;-45
2023/04/05 00:47:06;;;;;;;;;27.25;18.75;;;;;9.42;44.08;102003.78;5000270;28;45289;-44
2023/04/05 00:49:33;;;;;;;;;37.50;25.00;;;;;9.34;44.16;101990.22;5000033;28;45563;-45
2023/04/05 00:51:59;;;;;;;;;25.25;20.00;;;;;9.44;43.87;102006.38;5000293;28;45178;-47
2023/04/05 00:54:27;;;;;;;;;28.50;22.00;;;;;9.42;44.15;102008.25;5000339;28;45258;-45
2023/04/05 00:56:54;;;;;;;;;29.00;22.75;;;;;9.31;44.29;101987.75;4999833;28;47125;-47
2023/04/05 00:59:20;;;;;;;;;27.25;19.25;;;;;9.38;44.95;102006.78;4999970;28;45417;-46
2023/04/05 01:01:53;;;;;;;;;21.00;20.00;;;;;9.34;44.58;101994.69;5000067;28;45297;-48
2023/04/05 01:04:24;;;;;;;;;22.75;19.50;;;;;9.33;44.78;101999.13;5000195;28;45341;-44
2023/04/05 01:07:16;;;;;;;;;25.25;20.00;;;;;9.27;43.93;101994.28;4999843;28;46273;-45
2023/04/05 01:09:54;;;;;;;;;18.50;17.00;;;;;9.21;44.86;101984.91;4999923;28;45420;-46
2023/04/05 01:12:22;;;;;;;;;28.25;18.50;;;;;9.25;44.36;101988.19;4999788;28;45421;-45
2023/04/05 01:14:53;;;;;;;;;19.25;14.00;;;;;9.22;44.85;101991.91;5000245;28;45305;-55
2023/04/05 01:17:23;;;;;;;;;24.50;18.50;;;;;9.20;44.50;101988.53;4999538;28;46287;-44
2023/04/05 01:19:57;;;;;;;;;21.50;18.50;;;;;9.16;44.77;101984.38;4999723;28;45358;-44
2023/04/05 01:22:39;;;;;;;;;21.25;19.00;;;;;9.15;44.81;101982.69;4999743;28;45310;-45
2023/04/05 01:25:19;;;;;;;;;21.00;18.50;;;;;9.14;45.24;101981.00;4999769;28;45240;-45
2023/04/05 01:27:56;;;;;;;;;24.00;18.50;;;;;9.13;44.73;101979.28;4999422;28;47359;-45
2023/04/05 01:30:33;;;;;;;;;22.75;18.00;;;;;9.10;44.84;101974.22;4999581;28;45324;-44
2023/04/05 01:33:10;;;;;;;;;18.00;15.50;;;;;9.06;44.30;101971.84;4999705;28;45366;-46
2023/04/05 01:35:49;;;;;;;;;22.00;17.25;;;;;9.04;44.41;101961.34;4999604;28;45850;-46
2023/04/05 01:38:19;;;;;;;;;21.00;16.25;;;;;9.04;44.89;101968.47;4999242;28;45278;-47
2023/04/05 01:40:46;;;;;;;;;14.25;14.00;;;;;9.02;44.13;101973.91;4999233;28;45452;-45
2023/04/05 01:43:16;;;;;;;;;23.25;13.00;;;;;9.01;44.89;101966.88;4999258;28;45373;-46
2023/04/05 01:45:44;;;;;;;;;16.25;15.50;;;;;9.00;45.18;101973.13;4999519;28;45496;-47
2023/04/05 01:48:10;;;;;;;;;24.25;16.75;;;;;8.98;44.76;101969.75;4998982;28;46816;-45
2023/04/05 01:50:35;;;;;;;;;22.50;18.00;;;;;8.96;44.59;101969.84;4999157;28;45314;-46
2023/04/05 01:53:01;;;;;;;;;23.00;16.50;;;;;8.94;44.77;101961.16;4999149;28;45340;-46
2023/04/05 01:55:26;;;;;;;;;16.25;16.00;;;;;8.95;44.63;101964.66;4999281;28;45279;-45
2023/04/05 01:57:54;;;;;;;;;20.25;14.75;;;;;8.87;44.46;101953.72;4999078;28;45353;-46
2023/04/05 02:00:20;;;;;;;;;16.75;10.00;;;;;8.91;44.25;101966.66;4998987;28;45260;-46
2023/04/05 02:02:48;;;;;;;;;13.00;12.50;;;;;8.89;44.46;101960.63;4999207;28;45424;-46
2023/04/05 02:05:14;;;;;;;;;21.50;15.75;;;;;8.88;44.18;101963.38;4999035;28;45563;-45
2023/04/05 02:07:39;;;;;;;;;23.50;16.50;;;;;8.87;44.11;101965.19;4998953;28;45329;-46
2023/04/05 02:10:05;;;;;;;;;19.50;18.25;;;;;8.86;44.99;101957.34;4998844;28;45441;-46
2023/04/05 02:12:31;;;;;;;;;17.50;16.00;;;;;8.85;44.90;101961.78;4998952;28;45487;-47
2023/04/05 02:14:57;;;;;;;;;15.25;12.50;;;;;8.85;45.16;101947.66;4999266;28;45466;-45
2023/04/05 02:17:23;;;;;;;;;19.25;18.00;;;;;8.82;44.83;101930.16;4998666;28;45550;-44
2023/04/05 02:19:51;;;;;;;;;22.00;16.00;;;;;8.82;44.41;101938.13;4998812;28;45442;-46
2023/04/05 02:22:18;;;;;;;;;26.00;18.25;;;;;8.82;44.25;101940.78;4998848;28;45630;-47
2023/04/05 02:24:44;;;;;;;;;22.75;18.00;;;;;8.80;44.27;101933.84;4998966;28;45420;-47
2023/04/05 02:27:09;;;;;;;;;18.50;15.00;;;;;8.79;44.86;101925.06;4998728;28;45939;-48
2023/04/05 02:29:35;;;;;;;;;18.00;17.00;;;;;8.70;45.06;101920.38;4998645;28;45350;-45
2023/04/05 02:32:01;;;;;;;;;18.00;18.00;;;;;8.78;44.76;101926.00;4998825;28;45331;-46
2023/04/05 02:34:26;;;;;;;;;20.25;15.00;;;;;8.77;44.74;101931.44;4998976;28;45242;-47
2023/04/05 02:36:52;;;;;;;;;17.00;14.25;;;;;8.70;45.30;101920.38;4998198;28;45430;-47
2023/04/05 02:39:18;;;;;;;;;21.00;16.50;;;;;8.74;44.71;101924.53;4998578;28;45243;-47
2023/04/05 02:41:44;;;;;;;;;22.00;19.75;;;;;8.72;45.74;101924.66;4998276;28;45283;-46
2023/04/05 02:44:10;;;;;;;;;16.00;14.00;;;;;8.72;45.59;101922.00;4998684;28;45436;-47
2023/04/05 02:46:35;;;;;;;;;21.75;12.00;;;;;8.71;44.78;101920.28;4998470;28;45844;-51
2023/04/05 02:49:01;;;;;;;;;15.50;14.50;;;;;8.65;45.38;101923.38;4998269;28;45515;-46
2023/04/05 02:51:26;;;;;;;;;25.00;20.50;;;;;8.68;45.91;101916.97;4998296;28;45524;-46
2023/04/05 02:53:52;;;;;;;;;21.50;17.25;;;;;8.65;45.18;101930.47;4998534;28;45408;-47
2023/04/05 02:56:17;;;;;;;;;27.25;14.75;;;;;8.65;45.74;101925.16;4998165;28;46032;-45
2023/04/05 02:58:43;;;;;;;;;23.25;14.75;;;;;8.57;45.05;101907.13;4998109;28;45380;-45
2023/04/05 03:01:08;;;;;;;;;23.50;19.00;;;;;8.54;45.20;101896.72;4998218;28;45364;-45
2023/04/05 03:03:34;;;;;;;;;27.00;20.75;;;;;8.60;45.55;101914.88;4998554;28;45448;-46
2023/04/05 03:06:08;;;;;;;;;24.50;16.50;;;;;8.60;44.96;101912.22;4996693;28;46278;-45
2023/04/05 03:08:36;;;;;;;;;19.25;16.00;;;;;8.58;44.72;101916.75;4980645;28;45367;-47
2023/04/05 03:11:02;;;;;;;;;21.00;16.00;;;;;8.57;45.14;101917.72;4998172;28;45235;-47
2023/04/05 03:13:27;;;;;;;;;16.75;13.25;;;;;8.56;45.22;101921.34;4998176;28;45171;-44
2023/04/05 03:15:54;;;;;;;;;20.00;14.50;;;;;8.55;45.27;101914.31;4997653;28;52363;-53
2023/04/05 03:18:19;;;;;;;;;19.50;14.25;;;;;8.54;45.33;101917.09;4997786;28;45269;-47
2023/04/05 03:20:48;;;;;;;;;20.50;16.25;;;;;8.52;45.20;101917.19;4998027;28;45394;-48
2023/04/05 03:23:14;;;;;;;;;26.00;17.00;;;;;8.50;45.14;101922.59;4998117;28;45432;-47
2023/04/05 03:25:40;;;;;;;;;21.50;17.75;;;;;8.49;45.24;101920.91;4997746;28;46253;-54
2023/04/05 03:28:08;;;;;;;;;19.00;17.25;;;;;8.46;45.02;101923.75;4997626;28;45370;-47
2023/04/05 03:30:34;;;;;;;;;16.75;14.00;;;;;8.41;45.33;101917.91;4997855;28;45314;-45
2023/04/05 03:33:00;;;;;;;;;24.25;18.00;;;;;8.38;45.04;101915.47;4998072;28;45434;-49
2023/04/05 03:35:28;;;;;;;;;17.00;16.50;;;;;8.38;45.22;101926.06;4997686;28;45435;-46
2023/04/05 03:37:53;;;;;;;;;19.50;15.50;;;;;8.33;45.17;101924.66;4997318;28;45409;-47
2023/04/05 03:40:18;;;;;;;;;75.50;57.00;;;;;8.27;44.80;101910.03;4997470;28;45334;-54
2023/04/05 03:42:44;;;;;;;;;32.25;19.25;;;;;8.23;45.48;101917.34;4997616;28;45426;-46
2023/04/05 03:45:10;;;;;;;;;22.00;15.75;;;;;8.13;45.37;101905.66;4997437;28;47264;-47
2023/04/05 03:47:36;;;;;;;;;23.00;17.50;;;;;8.19;45.24;101918.47;4997389;28;45432;-48
2023/04/05 03:50:02;;;;;;;;;29.50;16.75;;;;;8.18;46.28;101922.09;4997526;28;45297;-47
2023/04/05 03:52:27;;;;;;;;;23.50;16.00;;;;;8.15;45.92;101910.84;4997480;28;45312;-46
2023/04/05 03:54:53;;;;;;;;;19.50;17.75;;;;;8.15;45.30;101910.84;4997328;28;46861;-46
2023/04/05 03:57:18;;;;;;;;;19.50;17.25;;;;;8.16;45.73;101921.34;4997338;28;45393;-48
2023/04/05 03:59:43;;;;;;;;;23.25;18.50;;;;;8.17;45.70;101915.06;4997471;28;45372;-49
2023/04/05 04:02:09;;;;;;;;;23.75;16.00;;;;;8.17;46.69;101911.56;4997490;28;45448;-45
2023/04/05 04:04:34;;;;;;;;;20.25;16.50;;;;;8.15;45.61;101910.84;4997230;28;46020;-56
2023/04/05 04:06:59;;;;;;;;;13.00;9.75;;;;;8.16;46.25;101918.69;4997293;28;45336;-55
2023/04/05 04:09:26;;;;;;;;;25.00;19.00;;;;;8.13;46.05;101910.97;4997223;28;45485;-48
2023/04/05 04:11:52;;;;;;;;;24.50;18.50;;;;;8.18;45.93;101911.50;4997596;28;45342;-46
2023/04/05 04:14:17;;;;;;;;;21.25;17.50;;;;;8.15;45.82;101917.00;4996918;28;48491;-49
2023/04/05 04:16:42;;;;;;;;;23.25;17.25;;;;;8.17;46.36;101911.56;4997764;28;45314;-46
2023/04/05 04:19:08;;;;;;;;;19.50;14.50;;;;;8.15;46.36;101903.75;5000560;28;45350;-46
2023/04/05 04:21:34;;;;;;;;;25.50;17.50;;;;;8.17;46.14;101914.22;5000450;28;45346;-46
2023/04/05 04:23:59;;;;;;;;;15.25;14.50;;;;;8.16;45.84;101908.06;5000571;28;46953;-51
2023/04/05 04:26:28;;;;;;;;;17.25;16.50;;;;;8.08;46.13;101902.44;5000181;28;45432;-47
2023/04/05 04:28:54;;;;;;;;;26.75;20.50;;;;;7.94;46.28;101878.66;5000631;28;45369;-52
2023/04/05 04:31:23;;;;;;;;;29.25;25.00;;;;;8.09;46.52;101898.88;5000847;28;45247;-47
2023/04/05 04:33:49;;;;;;;;;88.75;64.50;;;;;8.10;45.36;101911.16;5000070;28;46261;-48
2023/04/05 04:36:16;;;;;;;;;39.75;28.75;;;;;8.09;45.51;101900.63;5000322;28;45308;-51
2023/04/05 04:38:43;;;;;;;;;27.25;22.50;;;;;8.08;46.39;101902.44;5000411;28;45448;-48
2023/04/05 04:41:12;;;;;;;;;23.25;18.25;;;;;8.08;45.37;101901.59;5000230;28;45224;-45
2023/04/05 04:43:42;;;;;;;;;17.25;17.00;;;;;8.08;46.16;101909.53;5000195;28;45340;-47
2023/04/05 04:46:13;;;;;;;;;22.00;15.50;;;;;8.06;45.92;101906.16;5000065;28;45412;-46
2023/04/05 04:48:41;;;;;;;;;27.75;19.25;;;;;8.04;46.13;101906.25;5000088;28;45345;-48
2023/04/05 04:51:06;;;;;;;;;26.75;20.00;;;;;8.00;46.07;101904.75;5000419;28;45508;-46
2023/04/05 04:53:32;;;;;;;;;20.50;18.25;;;;;8.00;45.35;101902.09;4999872;28;46171;-46
2023/04/05 04:55:57;;;;;;;;;26.50;18.00;;;;;7.98;45.71;101907.50;4999938;28;45594;-45
2023/04/05 04:58:22;;;;;;;;;24.00;19.00;;;;;7.97;46.75;101902.31;4999946;28;45412;-45
2023/04/05 05:00:47;;;;;;;;;26.00;17.50;;;;;7.95;46.98;101894.47;4982564;28;45457;-49
2023/04/05 05:03:13;;;;;;;;;20.50;18.25;;;;;7.90;45.75;101895.72;4999929;28;45246;-46
2023/04/05 05:05:46;;;;;;;;;27.50;21.50;;;;;7.93;46.36;101900.81;4999927;28;45292;-45
2023/04/05 05:08:12;;;;;;;;;28.00;19.50;;;;;7.93;46.94;101895.53;4999757;28;45302;-47
2023/04/05 05:10:37;;;;;;;;;24.25;20.00;;;;;7.93;46.85;101884.94;5000020;28;45284;-45
2023/04/05 05:13:02;;;;;;;;;21.50;18.25;;;;;7.91;46.42;101890.31;4999647;28;46111;-46
2023/04/05 05:15:28;;;;;;;;;28.50;22.00;;;;;7.94;47.10;101889.28;4999125;28;45286;-57
2023/04/05 05:17:57;;;;;;;;;30.75;24.75;;;;;7.83;46.95;101867.94;4999885;28;45492;-45
2023/04/05 05:20:23;;;;;;;;;32.00;23.50;;;;;7.91;47.93;101890.31;4999776;28;45434;-48
2023/04/05 05:22:48;;;;;;;;;27.50;20.50;;;;;7.92;46.94;101888.50;4998737;28;45380;-48
2023/04/05 05:25:13;;;;;;;;;30.00;24.75;;;;;7.93;47.25;101895.53;4999356;28;45269;-45
2023/04/05 05:27:40;;;;;;;;;23.00;19.50;;;;;7.84;47.46;101877.59;4999581;28;45242;-54
2023/04/05 05:30:06;;;;;;;;;27.00;18.25;;;;;7.92;47.92;101891.16;4999378;28;45330;-46
2023/04/05 05:32:31;;;;;;;;;33.75;22.00;;;;;7.92;48.44;101897.34;4999128;28;45357;-53
2023/04/05 05:34:56;;;;;;;;;16.75;13.00;;;;;7.86;47.52;101880.97;4999586;28;45456;-47
2023/04/05 05:37:32;;;;;;;;;23.00;20.50;;;;;7.93;47.49;101895.53;4999474;28;45297;-54
2023/04/05 05:39:58;;;;;;;;;24.00;20.00;;;;;7.92;47.68;101891.16;4999592;28;45399;-56
2023/04/05 05:42:23;;;;;;;;;26.50;23.00;;;;;7.93;47.13;101890.22;4999069;28;46335;-47
2023/04/05 05:44:49;;;;;;;;;28.50;19.00;;;;;7.93;46.88;101893.72;4999330;28;45410;-56
2023/04/05 05:47:14;;;;;;;;;24.25;22.00;;;;;7.94;46.82;101898.06;4999410;28;45289;-50
2023/04/05 05:49:40;;;;;;;;;28.50;23.25;;;;;7.95;47.65;101897.09;4999661;28;45412;-57
2023/04/05 05:52:05;;;;;;;;;25.00;19.75;;;;;7.96;47.15;101901.47;4998860;28;46365;-47
2023/04/05 05:54:31;;;;;;;;;24.00;20.50;;;;;7.96;47.03;101897.94;4999217;28;45245;-48
2023/04/05 05:56:56;;;;;;;;;20.00;19.50;;;;;7.98;46.98;101898.72;4999287;28;45346;-52
2023/04/05 05:59:21;;;;;;;;;25.75;21.25;;;;;7.99;47.75;101898.59;4999541;28;45436;-55
2023/04/05 06:01:50;;;;;;;;;23.75;22.00;;;;;8.03;47.09;101895.75;4999175;28;46683;-58
2023/04/05 06:04:15;;;;;;;;;24.50;21.00;;;;;8.06;47.95;101895.56;4999067;28;45251;-57
2023/04/05 06:06:42;;;;;;;;;28.25;20.75;;;;;8.08;47.81;101889.19;4999244;28;45415;-46
2023/04/05 06:09:08;;;;;;;;;20.00;20.00;;;;;8.11;47.94;101891.63;4999272;28;45535;-47
2023/04/05 06:11:34;;;;;;;;;27.50;22.50;;;;;8.06;47.61;101880.50;4998656;28;45394;-57
2023/04/05 06:13:59;;;;;;;;;25.00;20.00;;;;;8.10;46.97;101875.84;4998956;28;45373;-48
2023/04/05 06:16:26;;;;;;;;;31.00;24.50;;;;;8.29;48.07;101899.31;4999001;28;45246;-55
2023/04/05 06:18:51;;;;;;;;;27.25;23.50;;;;;8.33;47.61;101906.09;4999037;28;45425;-46
2023/04/05 06:21:16;;;;;;;;;25.00;20.75;;;;;8.38;46.48;101899.56;4998505;28;46119;-48
2023/04/05 06:23:42;;;;;;;;;35.00;23.75;;;;;8.44;46.28;101917.72;4998651;28;45311;-48
2023/04/05 06:26:08;;;;;;;;;27.75;20.75;;;;;8.48;47.31;101905.09;4999088;28;45418;-45
2023/04/05 06:28:33;;;;;;;;;27.00;22.00;;;;;8.50;46.62;101901.38;4998984;28;45400;-46
2023/04/05 06:30:59;;;;;;;;;31.00;25.50;;;;;8.60;46.42;101911.38;4998757;28;46064;-48
2023/04/05 06:33:25;;;;;;;;;30.50;23.75;;;;;8.59;45.85;101902.53;4998665;28;45440;-56
2023/04/05 06:35:50;;;;;;;;;32.25;24.00;;;;;8.73;45.67;101913.06;4998557;28;45326;-45
2023/04/05 06:38:16;;;;;;;;;27.00;22.50;;;;;8.78;45.72;101919.88;4998678;28;45350;-47
2023/04/05 06:40:41;;;;;;;;;26.50;20.75;;;;;8.83;45.39;101912.44;4998186;28;46997;-48
2023/04/05 06:43:07;;;;;;;;;28.50;22.00;;;;;8.86;44.76;101912.22;4998299;28;45436;-48
2023/04/05 06:45:32;;;;;;;;;25.75;21.50;;;;;8.88;45.02;101913.78;4998547;28;45434;-51
2023/04/05 06:47:58;;;;;;;;;21.50;20.25;;;;;8.92;44.65;101917.09;4998537;28;45234;-54
2023/04/05 06:50:23;;;;;;;;;30.00;24.00;;;;;8.98;44.69;101916.69;4998343;28;47483;-50
2023/04/05 06:52:48;;;;;;;;;26.75;20.75;;;;;8.98;44.67;101911.38;4980427;28;45333;-46
2023/04/05 06:55:13;;;;;;;;;23.00;20.75;;;;;9.08;45.05;101916.88;4998271;28;45389;-45
2023/04/05 06:57:39;;;;;;;;;36.25;25.00;;;;;9.12;44.21;101921.84;4998380;28;45223;-45
2023/04/05 07:00:12;;;;;;;;;31.00;24.25;;;;;9.17;44.74;101925.03;4997821;28;47656;-50
2023/04/05 07:02:37;;;;;;;;;36.50;30.50;;;;;9.24;44.65;101928.09;4998016;28;45388;-46
2023/04/05 07:05:04;;;;;;;;;33.50;26.50;;;;;9.33;43.97;101919.47;4997764;28;45271;-47
2023/04/05 07:07:30;;;;;;;;;27.50;23.25;;;;;9.42;44.28;101925.94;4998342;28;45458;-45
2023/04/05 07:09:56;;;;;;;;;32.50;26.25;;;;;9.48;43.77;101921.03;4997566;28;47028;-46
2023/04/05 07:12:21;;;;;;;;;27.50;24.00;;;;;9.59;44.08;101925.56;4997689;28;45298;-46
2023/04/05 07:14:46;;;;;;;;;25.25;20.00;;;;;9.62;44.05;101906.75;4997035;28;45322;-47
2023/04/05 07:17:12;;;;;;;;;33.00;22.75;;;;;9.98;43.72;101928.91;4998126;28;45542;-45
2023/04/05 07:19:37;;;;;;;;;20.75;16.75;;;;;10.35;42.95;101926.19;4997625;28;46959;-50
2023/04/05 07:22:02;;;;;;;;;30.00;24.50;;;;;10.78;42.20;101923.72;4997665;28;45382;-46
2023/04/05 07:24:28;;;;;;;;;29.75;22.00;;;;;11.21;41.19;101931.88;4997702;28;45475;-50
2023/04/05 07:26:53;;;;;;;;;28.75;23.25;;;;;11.62;40.20;101932.16;4998044;28;45226;-46
2023/04/05 07:29:19;;;;;;;;;36.00;22.50;;;;;11.90;39.75;101907.66;4997516;28;45310;-55
2023/04/05 07:31:44;;;;;;;;;32.00;27.75;;;;;12.39;38.86;101924.06;4997549;28;45355;-58
2023/04/05 07:34:10;;;;;;;;;35.00;26.00;;;;;12.80;38.57;101922.31;4998027;28;45411;-49
2023/04/05 07:36:35;;;;;;;;;28.00;25.50;;;;;13.21;37.52;101918.72;4997699;28;45405;-47
2023/04/05 07:39:01;;;;;;;;;26.00;23.50;;;;;13.65;36.72;101921.97;4997239;28;46098;-53
2023/04/05 07:41:30;;;;;;;;;27.00;24.75;;;;;14.10;35.48;101916.09;4979780;28;45392;-48
2023/04/05 07:43:56;;;;;;;;;36.75;25.75;;;;;14.49;35.00;101916.94;4997528;28;45479;-49
2023/04/05 07:46:21;;;;;;;;;30.25;25.50;;;;;14.82;35.06;101917.41;4997903;28;45534;-49
2023/04/05 07:48:50;;;;;;;;;29.00;22.00;;;;;15.18;34.43;101915.75;4997164;28;45990;-54
2023/04/05 07:51:15;;;;;;;;;33.67;26.67;;;;;15.52;33.26;101913.31;4996745;28;45336;-44
2023/04/05 07:53:41;;;;;;;;;31.00;22.33;;;;;15.84;33.57;101906.59;4997219;28;45440;-55
2023/04/05 07:56:09;;;;;;;;;28.00;23.33;;;;;16.17;31.95;101908.59;4997471;28;45401;-48
2023/04/05 07:58:38;;;;;;;;;26.00;24.33;;;;;16.57;31.53;101903.72;4997126;28;46236;-46
2023/04/05 08:01:04;;;;;;;;;35.67;27.67;;;;;17.02;30.74;101892.72;4997029;28;45495;-46
2023/04/05 08:03:31;;;;;;;;;30.00;23.00;;;;;17.53;29.81;101887.34;4996843;28;45457;-47
2023/04/05 08:05:56;;;;;;;;;30.67;27.00;;;;;18.01;29.63;101892.03;4997481;28;45483;-52
2023/04/05 08:08:23;;;;;;;;;28.00;22.00;;;;;18.51;27.69;101884.75;4996826;28;46168;-47
2023/04/05 08:10:49;;;;;;;;;25.00;20.00;;;;;18.95;27.71;101893.25;4996865;28;45312;-45
2023/04/05 08:13:14;;;;;;;;;24.33;19.00;;;;;19.48;27.53;101883.59;4997198;28;45232;-45
2023/04/05 08:15:40;;;;;;;;;26.00;21.00;;;;;19.97;26.45;101885.97;4997360;28;45661;-44
2023/04/05 08:18:05;;;;;;;;;22.67;19.67;;;;;20.39;25.49;101888.16;4997057;28;45685;-45
2023/04/05 08:20:31;;;;;;;;;24.67;22.00;;;;;20.88;25.24;101884.97;4996857;28;45637;-46
2023/04/05 08:22:56;;;;;;;;;26.00;20.00;;;;;21.24;25.14;101894.16;4997139;28;45306;-52
2023/04/05 08:25:21;;;;;;;;;17.00;15.33;;;;;21.59;24.57;101896.06;4997054;28;45580;-54
2023/04/05 08:27:47;;;;;;;;;24.00;22.00;;;;;21.95;23.30;101899.75;4996863;28;47166;-44
2023/04/05 08:30:12;;;;;;;;;24.67;23.00;;;;;22.13;23.34;101901.03;4996863;28;45427;-47
2023/04/05 08:32:38;;;;;;;;;26.00;21.67;;;;;22.22;23.21;101895.47;4996981;28;45470;-47
2023/04/05 08:35:03;;;;;;;;;26.00;22.33;;;;;21.76;24.02;101896.69;4979544;28;45344;-47
2023/04/05 08:37:34;;;;;;;;;30.33;22.00;;;;;22.04;23.65;101891.34;4996750;28;46140;-46
2023/04/05 08:39:59;;;;;;;;;23.00;19.33;;;;;22.62;22.39;101894.72;4996461;28;45384;-46
2023/04/05 08:42:33;;;;;;;;;28.33;21.00;;;;;23.03;23.11;101893.97;4996628;28;45277;-47
2023/04/05 08:45:01;;;;;;;;;27.33;21.00;;;;;23.26;22.65;101890.94;4996997;28;45598;-48
2023/04/05 08:47:27;;;;;;;;;24.00;19.33;;;;;23.24;21.69;101893.00;4996625;28;45448;-47
2023/04/05 08:49:52;;;;;;;;;27.33;19.00;;;;;22.90;21.98;101880.31;4996837;28;45525;-45
2023/04/05 08:52:18;;;;;;;;;27.67;23.00;;;;;23.04;22.18;101897.50;4996507;28;45546;-47
2023/04/05 08:54:43;;;;;;;;;21.00;13.33;;;;;22.81;22.05;101889.63;4997042;28;45394;-55
2023/04/05 08:57:09;;;;;;;;;24.67;19.67;;;;;22.74;22.12;101897.72;4996463;28;45924;-48
2023/04/05 08:59:37;;;;;;;;;21.67;19.33;;;;;22.45;22.31;101895.22;4996416;28;45516;-47
2023/04/05 09:02:13;;;;;;;;;25.00;19.33;;;;;22.36;22.37;101900.78;4996538;28;45362;-46
2023/04/05 09:04:43;;;;;;;;;29.33;17.33;;;;;22.29;22.70;101901.78;4998720;28;45393;-45
2023/04/05 09:07:10;;;;;;;;;20.00;19.33;;;;;22.50;22.95;101890.03;4999493;28;45390;-45
2023/04/05 09:09:37;;;;;;;;;19.67;18.00;;;;;22.65;21.89;101896.22;4999737;28;45515;-49
2023/04/05 09:12:06;;;;;;;;;24.00;18.00;;;;;22.63;21.80;101896.41;4999934;28;45368;-44
2023/04/05 09:14:36;;;;;;;;;20.50;16.75;;;;;22.70;20.95;101899.16;4999926;28;45191;-45
2023/04/05 09:17:02;;;;;;;;;22.50;15.25;;;;;22.86;21.21;101892.59;4999802;28;46376;-52
2023/04/05 09:19:28;;;;;;;;;21.67;21.67;;;;;23.35;22.44;101886.19;4999451;28;45216;-50
2023/04/05 09:22:03;;;;;;;;;17.67;16.67;;;;;24.39;21.11;101893.88;4999595;28;45385;-48
2023/04/05 09:24:40;;;;;;;;;25.33;20.33;;;;;26.45;18.51;101896.50;4999893;28;45362;-52
2023/04/05 09:27:11;;;;;;;;;21.50;21.00;;;;;28.73;19.45;101886.59;4999490;28;46192;-47
2023/04/05 09:29:39;;;;;;;;;26.75;24.75;;;;;30.20;17.35;101893.31;4999464;28;45380;-49
2023/04/05 09:32:06;;;;;;;;;28.25;21.50;;;;;31.07;16.94;101880.84;4999468;28;45357;-49
2023/04/05 09:34:35;;;;;;;;;22.00;22.00;;;;;31.76;14.32;101877.47;4981942;28;45291;-45
2023/04/05 09:37:00;;;;;;;;;25.00;20.50;;;;;32.28;14.52;101874.91;4999248;28;46380;-47
2023/04/05 09:39:32;;;;;;;;;19.50;18.00;;;;;32.89;14.97;101873.63;4999019;28;45859;-46
2023/04/05 09:42:05;;;;;;;;;28.00;25.25;;;;;33.44;12.64;101873.00;4999137;28;45233;-46
2023/04/05 09:45:00;;;;;;;;;31.75;24.25;;;;;34.01;13.57;101874.75;4999543;28;45359;-53
2023/04/05 09:47:31;;;;;;;;;29.50;19.75;;;;;34.44;12.40;101866.94;4999190;28;46986;-47
2023/04/05 09:50:20;;;;;;;;;23.60;19.40;;;;;35.00;12.47;101864.00;4999045;28;45183;-47
2023/04/05 09:52:46;;;;;;;;;27.20;22.40;;;;;35.46;11.68;101855.44;4938287;28;45402;-46
2023/04/05 09:55:12;;;;;;;;;25.50;23.75;;;;;36.25;11.67;101855.38;4938585;28;45575;-53
2023/04/05 09:57:42;;;;;;;;;19.60;18.20;;;;;36.67;11.85;101853.81;4938185;28;45470;-48
2023/04/05 10:00:19;;;;;;;;;19.60;18.60;;;;;37.08;11.56;101856.06;4938121;28;45393;-45
2023/04/05 10:02:50;;;;;;;;;19.00;17.40;;;;;37.45;9.95;101864.41;4937720;28;45307;-43
2023/04/05 10:05:16;;;;;;;;;21.60;19.20;;;;;37.67;10.86;101857.41;4938320;28;45534;-47
2023/04/05 10:07:42;;;;;;;;;24.25;21.75;;;;;38.01;9.58;101859.94;4938138;28;45914;-46
2023/04/05 10:10:09;;;;;;;;;25.80;20.20;;;;;38.22;9.83;101859.53;4938194;28;45545;-44
2023/04/05 10:12:37;;;;;;;;;21.80;20.40;;;;;38.26;10.18;101853.03;4938223;28;45288;-44
2023/04/05 10:15:04;;;;;;;;;21.60;18.60;;;;;38.65;9.87;101854.53;4937953;28;45568;-46
2023/04/05 10:17:52;;;;;;;;;20.80;16.60;;;;;38.84;8.96;101852.47;4938101;28;45296;-49
2023/04/05 10:20:22;;;;;;;;;21.80;20.00;;;;;38.99;9.01;101847.72;4937955;28;45454;-46
2023/04/05 10:22:47;;;;;;;;;25.00;23.00;;;;;38.91;8.98;101846.50;4938091;28;45328;-47
2023/04/05 10:25:27;;;;;;;;;22.75;20.00;;;;;38.92;9.28;101845.34;4938162;28;45503;-44
2023/04/05 10:28:03;;;;;;;;;26.80;24.40;;;;;39.10;9.76;101843.56;4937895;28;46163;-51
2023/04/05 10:30:34;;;;;;;;;24.80;23.20;;;;;39.05;9.38;101838.94;4986275;28;45345;-46
2023/04/05 10:33:12;;;;;;;;;31.00;24.20;;;;;39.27;9.76;101840.13;4998452;28;45353;-47
2023/04/05 10:36:00;;;;;;;;;27.40;24.20;;;;;39.35;9.96;101833.81;4998740;28;45468;-46
2023/04/05 10:38:28;;;;;;;;;22.20;21.20;;;;;39.78;9.77;101827.75;4998207;28;46462;-49
2023/04/05 10:41:08;;;;;;;;;23.00;18.20;;;;;39.84;10.12;101818.94;4996763;28;45321;-51
2023/04/05 10:43:36;;;;;;;;;24.60;21.80;;;;;40.12;9.48;101818.78;4998270;28;45252;-48
2023/04/05 10:46:02;;;;;;;;;28.00;20.60;;;;;40.25;10.72;101809.50;4998499;28;45341;-47
2023/04/05 10:48:53;;;;;;;;;21.80;18.80;;;;;40.05;11.18;101815.59;4998264;28;46129;-48
2023/04/05 10:51:22;;;;;;;;;25.80;22.20;;;;;40.07;9.41;101800.19;4998283;28;45456;-46
2023/04/05 10:53:48;;;;;;;;;33.40;22.80;;;;;40.19;9.00;101807.16;4998255;28;45321;-48
2023/04/05 10:56:14;;;;;;;;;25.80;21.20;;;;;40.28;9.42;101810.81;4998242;28;45380;-48
2023/04/05 10:58:41;;;;;;;;;26.50;22.50;;;;;40.40;8.82;101803.47;4997998;28;46845;-47
2023/04/05 11:01:08;;;;;;;;;28.40;25.60;;;;;40.48;9.04;101796.25;4997793;28;45270;-48
2023/04/05 11:03:53;;;;;;;;;26.80;23.20;;;;;40.41;10.02;101793.13;4997988;28;45364;-45
2023/04/05 11:06:28;;;;;;;;;23.20;19.00;;;;;40.23;10.13;101800.63;4998272;28;45207;-48
2023/04/05 11:08:57;;;;;;;;;28.80;25.00;;;;;40.02;10.08;101791.16;4997922;28;46290;-47
2023/04/05 11:11:25;;;;;;;;;20.60;20.00;;;;;39.72;8.69;101795.59;4997706;28;45415;-50
2023/04/05 11:13:53;;;;;;;;;27.60;23.60;;;;;39.31;8.83;101799.38;4997948;28;45380;-49
2023/04/05 11:16:19;;;;;;;;;23.20;21.60;;;;;39.29;9.16;101790.53;4998049;28;45388;-48